Verdi, Nevada
Current Conditions -  °F | °C
As of 3:55 AM on Sunday 23 Nov 2014 (Local Time) from KRNO Reporting Station
Few Clouds Few Clouds  
Wind Chill: 30°   Ceiling: Unl
Heat Index: 30°   Visibility: 10mi
Dew Point: 24°   Wind: 3mph
Humidity: 79%   Direction: 170°S
Pressure: 30.34"   Gusts: NA
Location:  39.52°N, 119.99°W
Report Text: KRNO 231155Z 17003KT 10SM FEW220 M01/M04 A3034 RMK AO2 SLP273 T10111044 10039 21017 51017
Loading
Personal Weather Stations






























Interactive Weather Map New forecast layout! Learn more

10-Day Weather Forecast

Advertisements
Track Severe Weather on mobile